サンクトペテルブルク の空港の天気 - METARとTAF

プルコヴォ空港(サンクトペテルブルグ) ( ULLI / LED ) - ロシア サンクトペテルブルク
飛行場実況気象(Metar)
観測時間08/22 19:30 MSK (08/22 16:30 UTC)
風向・風速西 6m/s
視程10km以上
天気現象
なし
気温18℃
湿度56%
気圧1023hPa
METARULLI 221630Z 28006MPS CAVOK 18/09 Q1023 R88/090060 NOSIG
過去の天気等 Google飛行場航空写真 Wunderground天気予報

過去48時間のMETAR

飛行場予報(TAF)
発表時間: 8/22 16:57 MSK (8/22 13:57 UTC)
予報対象時間: 22日18時 MSK ~ 23日18時 MSK
風向・風速西 6m/s 瞬間風速 11m/s
視程10km以上
全天の8割程度の雲 雲底高度 460m
22日18時 MSK ~ 22日21時 MSK に一時的に
風向・風速西 7m/s 瞬間風速 13m/s
視程3100m
天気現象弱いしゅう雨
全天の8割程度の雲 雲底高度 340m
全天の8割程度の積乱雲 雲底高度 610m
22日21時 MSK ~ 22日22時 MSK に徐々に
風向・風速西南西 5m/s 瞬間風速 10m/s
22日22時 MSK ~ 23日9時 MSK に一時的に
風向・風速西南西 3m/s
視程3100m
天気現象地霧 もや
全天の8割程度の雲 雲底高度 340m
23日9時 MSK ~ 23日18時 MSK に一時的に
風向・風速南西 6m/s 瞬間風速 12m/s
視程3100m
天気現象弱いしゅう雨 もや
全天の8割程度の雲 雲底高度 340m
全天の8割程度の積乱雲 雲底高度 550m
TAF ULLI 221357Z 2215/2315 27006G11MPS 9999 BKN015
TEMPO 2215/2218 28007G13MPS 3100 -SHRA BKN011 BKN020CB
BECMG 2218/2219 24005G10MPS
TEMPO 2219/2306 24003MPS 3100 MIFG BR BKN011
TEMPO 2306/2315 22006G12MPS 3100 -SHRA BR BKN011 BKN018CB